< < Back
Terminal Aerodrome Forecast


Current Version              Previous Versions:   1  2  3  4  5  6  7  8  9  

Terminal Aerodrome Forecast

371
FTUS42 KFFC 290100 AAA
TAFMCN
TAF AMD
KMCN 290130Z 2902/2924 27006KT P6SM FEW070
     FM291600 33009G17KT P6SM SCT050=



Latest METAR

105
SAUS80 KWBC 291200 RRA
MTRMCN
METAR KMCN 291153Z 26003KT 10SM CLR 19/18 A2996 RMK AO2 SLP141 T01940183
10206 20172 51012


USA.gov is the U.S. government's official web portal to all federal, state and local government web resources and services.